Terminal Aerodrome Forecast
Issued by NWS Missoula, MT

Home | Current Version | Previous Version | Text Only | Print | Product List | Glossary On
Versions: 1 2 3 4 5 6 7 8 9 10 11 12 13 14
000
FTUS45 KMSO 270520
TAFBTM
TAF
KBTM 270520Z 2706/2806 23008KT P6SM -SHRA VCTS SCT050 BKN080CB
     FM270900 26012KT P6SM VCSH BKN050 OVC070
     FM271800 31010G20KT P6SM BKN070
     FM272100 32015G25KT 5SM -TSRA BKN050CB BKN070
     FM280000 32010KT P6SM VCSH SCT060 BKN080=

USA.gov is the U.S. government's official web portal to all federal, state and local government web resources and services.